Terminal Aerodrome Forecast
Issued by NWS Duluth, MN

Home | Current Version | Previous Version | Text Only | Print | Product List | Glossary On
Versions: 1 2 3 4 5 6 7 8 9 10 11 12 13 14 15 16 17 18 19 20 21
544
FTUS43 KDLH 141138
TAFINL
TAF
KINL 141138Z 1412/1512 VRB03KT 3SM BR SCT110
      TEMPO 1412/1413 1SM BR
     FM141400 00000KT P6SM SCT100
     FM151000 00000KT 5SM BR SCT150=

USA.gov is the U.S. government's official web portal to all federal, state and local government web resources and services.